sensor_id;sensor_type;location;lat;lon;timestamp;pressure;altitude;pressure_sealevel;temperature;humidity
34297;BME280;20564;42.902;25.336;2022-10-31T00:01:16;97570.28;;;7.58;95.44
34297;BME280;20564;42.902;25.336;2022-10-31T00:03:43;97574.13;;;7.65;95.27
34297;BME280;20564;42.902;25.336;2022-10-31T00:06:11;97564.03;;;7.71;94.87
34297;BME280;20564;42.902;25.336;2022-10-31T00:08:38;97550.81;;;7.73;95.16
34297;BME280;20564;42.902;25.336;2022-10-31T00:11:09;97553.78;;;7.68;94.83
34297;BME280;20564;42.902;25.336;2022-10-31T00:13:37;97563.19;;;7.71;96.33
34297;BME280;20564;42.902;25.336;2022-10-31T00:16:04;97550.94;;;7.71;96.21
34297;BME280;20564;42.902;25.336;2022-10-31T00:18:31;97548.09;;;7.86;96.01
34297;BME280;20564;42.902;25.336;2022-10-31T00:21:02;97546.09;;;7.89;95.67
34297;BME280;20564;42.902;25.336;2022-10-31T00:23:30;97548.72;;;7.89;95.84
34297;BME280;20564;42.902;25.336;2022-10-31T00:26:02;97546.59;;;7.94;95.12
34297;BME280;20564;42.902;25.336;2022-10-31T00:28:29;97573.41;;;7.98;95.93
34297;BME280;20564;42.902;25.336;2022-10-31T00:31:05;97566.84;;;7.92;95.39
34297;BME280;20564;42.902;25.336;2022-10-31T00:33:36;97577.47;;;8.02;95.51
34297;BME280;20564;42.902;25.336;2022-10-31T00:36:05;97583.34;;;8.06;95.33
34297;BME280;20564;42.902;25.336;2022-10-31T00:38:33;97580.00;;;8.15;94.58
34297;BME280;20564;42.902;25.336;2022-10-31T00:41:06;97578.25;;;8.15;95.71
34297;BME280;20564;42.902;25.336;2022-10-31T00:43:33;97579.91;;;8.16;95.45
34297;BME280;20564;42.902;25.336;2022-10-31T00:46:03;97590.50;;;8.26;95.31
34297;BME280;20564;42.902;25.336;2022-10-31T00:48:30;97583.75;;;8.35;95.89
34297;BME280;20564;42.902;25.336;2022-10-31T00:50:58;97593.88;;;8.28;95.59
34297;BME280;20564;42.902;25.336;2022-10-31T00:53:25;97586.75;;;8.30;95.26
34297;BME280;20564;42.902;25.336;2022-10-31T00:55:52;97585.81;;;8.42;94.81
34297;BME280;20564;42.902;25.336;2022-10-31T00:58:19;97591.69;;;8.46;95.10
34297;BME280;20564;42.902;25.336;2022-10-31T01:00:48;97595.00;;;8.48;95.18
34297;BME280;20564;42.902;25.336;2022-10-31T01:03:23;97590.13;;;8.55;95.52
34297;BME280;20564;42.902;25.336;2022-10-31T01:08:28;97585.47;;;8.69;93.76
34297;BME280;20564;42.902;25.336;2022-10-31T01:11:02;97595.75;;;8.73;94.33
34297;BME280;20564;42.902;25.336;2022-10-31T01:13:30;97596.94;;;8.68;95.78
34297;BME280;20564;42.902;25.336;2022-10-31T01:15:59;97598.59;;;8.69;95.39
34297;BME280;20564;42.902;25.336;2022-10-31T01:18:27;97594.44;;;8.78;93.61
34297;BME280;20564;42.902;25.336;2022-10-31T01:21:09;97594.91;;;8.83;94.36
34297;BME280;20564;42.902;25.336;2022-10-31T01:23:37;97600.91;;;8.85;94.63
34297;BME280;20564;42.902;25.336;2022-10-31T01:26:13;97601.13;;;8.82;94.21
34297;BME280;20564;42.902;25.336;2022-10-31T01:28:49;97590.50;;;8.84;94.69
34297;BME280;20564;42.902;25.336;2022-10-31T01:31:19;97595.75;;;8.84;94.78
34297;BME280;20564;42.902;25.336;2022-10-31T01:33:47;97589.19;;;8.89;94.62
34297;BME280;20564;42.902;25.336;2022-10-31T01:36:28;97593.63;;;8.89;95.21
34297;BME280;20564;42.902;25.336;2022-10-31T01:38:59;97599.47;;;8.92;94.50
34297;BME280;20564;42.902;25.336;2022-10-31T01:41:29;97597.78;;;8.91;94.45
34297;BME280;20564;42.902;25.336;2022-10-31T01:44:03;97588.09;;;8.92;94.77
34297;BME280;20564;42.902;25.336;2022-10-31T01:49:04;97578.19;;;8.96;93.65
34297;BME280;20564;42.902;25.336;2022-10-31T01:51:34;97598.97;;;8.99;93.02
34297;BME280;20564;42.902;25.336;2022-10-31T01:54:08;97607.56;;;9.01;93.17
34297;BME280;20564;42.902;25.336;2022-10-31T01:56:39;97603.97;;;9.02;92.76
34297;BME280;20564;42.902;25.336;2022-10-31T01:59:11;97595.41;;;9.00;93.61
34297;BME280;20564;42.902;25.336;2022-10-31T02:01:39;97598.28;;;8.97;94.71
34297;BME280;20564;42.902;25.336;2022-10-31T02:04:07;97595.88;;;8.93;94.91
34297;BME280;20564;42.902;25.336;2022-10-31T02:06:38;97590.84;;;9.02;94.91
34297;BME280;20564;42.902;25.336;2022-10-31T02:09:08;97600.66;;;9.00;93.78
34297;BME280;20564;42.902;25.336;2022-10-31T02:11:35;97592.78;;;9.00;94.67
34297;BME280;20564;42.902;25.336;2022-10-31T02:14:03;97602.31;;;9.01;95.30
34297;BME280;20564;42.902;25.336;2022-10-31T02:16:31;97598.50;;;8.93;94.92
34297;BME280;20564;42.902;25.336;2022-10-31T02:18:58;97608.63;;;8.98;95.04
34297;BME280;20564;42.902;25.336;2022-10-31T02:21:49;97611.16;;;9.00;94.79
34297;BME280;20564;42.902;25.336;2022-10-31T02:33:30;97628.56;;;9.01;96.00
34297;BME280;20564;42.902;25.336;2022-10-31T02:36:13;97631.19;;;8.89;96.04
34297;BME280;20564;42.902;25.336;2022-10-31T02:41:50;97622.13;;;8.93;96.54
34297;BME280;20564;42.902;25.336;2022-10-31T02:44:35;97616.41;;;9.00;95.86
34297;BME280;20564;42.902;25.336;2022-10-31T02:47:08;97621.91;;;8.97;97.33
34297;BME280;20564;42.902;25.336;2022-10-31T02:49:45;97624.63;;;8.95;97.30
34297;BME280;20564;42.902;25.336;2022-10-31T02:52:24;97621.41;;;8.91;98.42
34297;BME280;20564;42.902;25.336;2022-10-31T02:54:51;97617.94;;;8.91;98.23
34297;BME280;20564;42.902;25.336;2022-10-31T02:57:26;97617.47;;;8.97;98.05
34297;BME280;20564;42.902;25.336;2022-10-31T03:00:02;97608.63;;;8.98;98.36
34297;BME280;20564;42.902;25.336;2022-10-31T03:08:22;97620.78;;;9.10;96.39
34297;BME280;20564;42.902;25.336;2022-10-31T03:10:58;97614.47;;;9.02;97.89
34297;BME280;20564;42.902;25.336;2022-10-31T03:16:32;97614.63;;;8.89;97.44
34297;BME280;20564;42.902;25.336;2022-10-31T03:19:05;97624.84;;;8.92;96.68
34297;BME280;20564;42.902;25.336;2022-10-31T03:21:46;97628.94;;;8.85;96.82
34297;BME280;20564;42.902;25.336;2022-10-31T03:24:15;97623.91;;;8.82;96.85
34297;BME280;20564;42.902;25.336;2022-10-31T03:26:50;97630.47;;;8.87;97.27
34297;BME280;20564;42.902;25.336;2022-10-31T03:29:22;97628.34;;;8.81;97.31
34297;BME280;20564;42.902;25.336;2022-10-31T03:32:00;97640.97;;;8.87;97.74
34297;BME280;20564;42.902;25.336;2022-10-31T03:34:30;97625.13;;;8.89;96.93
34297;BME280;20564;42.902;25.336;2022-10-31T03:37:00;97619.72;;;8.79;97.23
34297;BME280;20564;42.902;25.336;2022-10-31T03:39:29;97625.59;;;8.83;96.53
34297;BME280;20564;42.902;25.336;2022-10-31T03:42:02;97631.66;;;8.83;96.51
34297;BME280;20564;42.902;25.336;2022-10-31T03:44:33;97648.16;;;8.85;96.97
34297;BME280;20564;42.902;25.336;2022-10-31T03:47:02;97641.69;;;8.78;97.75
34297;BME280;20564;42.902;25.336;2022-10-31T03:49:31;97649.66;;;8.77;98.75
34297;BME280;20564;42.902;25.336;2022-10-31T03:54:56;97651.84;;;8.83;99.23
34297;BME280;20564;42.902;25.336;2022-10-31T03:57:29;97647.53;;;8.71;99.31
34297;BME280;20564;42.902;25.336;2022-10-31T04:00:09;97652.88;;;8.80;99.22
34297;BME280;20564;42.902;25.336;2022-10-31T04:02:45;97660.97;;;8.66;99.93
34297;BME280;20564;42.902;25.336;2022-10-31T04:05:15;97663.88;;;8.63;100.00
34297;BME280;20564;42.902;25.336;2022-10-31T04:07:46;97662.69;;;8.67;100.00
34297;BME280;20564;42.902;25.336;2022-10-31T04:10:15;97649.06;;;8.62;100.00
34297;BME280;20564;42.902;25.336;2022-10-31T04:12:50;97665.31;;;8.78;100.00
34297;BME280;20564;42.902;25.336;2022-10-31T04:15:19;97662.34;;;8.83;100.00
34297;BME280;20564;42.902;25.336;2022-10-31T04:17:50;97662.94;;;8.86;100.00
34297;BME280;20564;42.902;25.336;2022-10-31T04:20:32;97669.16;;;8.97;100.00
34297;BME280;20564;42.902;25.336;2022-10-31T04:23:01;97667.47;;;8.96;100.00
34297;BME280;20564;42.902;25.336;2022-10-31T04:25:28;97672.00;;;9.05;99.23
34297;BME280;20564;42.902;25.336;2022-10-31T04:27:55;97672.00;;;9.05;100.00
34297;BME280;20564;42.902;25.336;2022-10-31T04:30:23;97664.88;;;9.07;100.00
34297;BME280;20564;42.902;25.336;2022-10-31T04:32:50;97670.13;;;9.07;99.60
34297;BME280;20564;42.902;25.336;2022-10-31T04:35:17;97673.44;;;9.09;99.05
34297;BME280;20564;42.902;25.336;2022-10-31T04:37:44;97676.44;;;9.15;99.06
34297;BME280;20564;42.902;25.336;2022-10-31T04:40:11;97685.63;;;9.21;99.45
34297;BME280;20564;42.902;25.336;2022-10-31T04:42:38;97677.63;;;9.23;100.00
34297;BME280;20564;42.902;25.336;2022-10-31T04:45:06;97673.56;;;9.30;99.77
34297;BME280;20564;42.902;25.336;2022-10-31T04:47:33;97678.94;;;9.28;100.00
34297;BME280;20564;42.902;25.336;2022-10-31T04:50:02;97675.00;;;9.34;99.30
34297;BME280;20564;42.902;25.336;2022-10-31T04:52:29;97666.53;;;9.30;99.16
34297;BME280;20564;42.902;25.336;2022-10-31T04:54:56;97677.50;;;9.35;99.15
34297;BME280;20564;42.902;25.336;2022-10-31T04:57:23;97681.53;;;9.39;99.23
34297;BME280;20564;42.902;25.336;2022-10-31T04:59:50;97676.91;;;9.32;99.40
34297;BME280;20564;42.902;25.336;2022-10-31T05:02:17;97685.38;;;9.35;99.13
34297;BME280;20564;42.902;25.336;2022-10-31T05:04:45;97688.72;;;9.37;99.53
34297;BME280;20564;42.902;25.336;2022-10-31T05:07:12;97694.56;;;9.41;98.64
34297;BME280;20564;42.902;25.336;2022-10-31T05:09:39;97699.22;;;9.37;97.86
34297;BME280;20564;42.902;25.336;2022-10-31T05:12:06;97697.06;;;9.31;97.51
34297;BME280;20564;42.902;25.336;2022-10-31T05:14:33;97705.47;;;9.25;98.23
34297;BME280;20564;42.902;25.336;2022-10-31T05:17:00;97718.09;;;9.20;98.28
34297;BME280;20564;42.902;25.336;2022-10-31T05:19:31;97715.97;;;9.25;99.12
34297;BME280;20564;42.902;25.336;2022-10-31T05:22:14;97713.91;;;9.17;98.40
34297;BME280;20564;42.902;25.336;2022-10-31T05:25:04;97713.78;;;9.08;97.69
34297;BME280;20564;42.902;25.336;2022-10-31T05:32:12;97740.38;;;8.92;99.32
34297;BME280;20564;42.902;25.336;2022-10-31T05:35:00;97722.72;;;8.94;99.33
34297;BME280;20564;42.902;25.336;2022-10-31T05:37:28;97738.63;;;9.04;99.16
34297;BME280;20564;42.902;25.336;2022-10-31T05:39:58;97740.75;;;8.99;99.17
34297;BME280;20564;42.902;25.336;2022-10-31T05:42:33;97741.56;;;8.99;99.02
34297;BME280;20564;42.902;25.336;2022-10-31T05:45:01;97734.44;;;9.01;99.07
34297;BME280;20564;42.902;25.336;2022-10-31T05:47:28;97742.91;;;9.05;99.30
34297;BME280;20564;42.902;25.336;2022-10-31T05:49:55;97740.06;;;9.08;99.33
34297;BME280;20564;42.902;25.336;2022-10-31T05:52:22;97750.34;;;9.11;99.24
34297;BME280;20564;42.902;25.336;2022-10-31T05:54:49;97740.16;;;9.17;98.12
34297;BME280;20564;42.902;25.336;2022-10-31T05:57:16;97747.13;;;9.18;98.62
34297;BME280;20564;42.902;25.336;2022-10-31T05:59:43;97749.16;;;9.26;97.82
34297;BME280;20564;42.902;25.336;2022-10-31T06:02:10;97748.09;;;9.29;97.79
34297;BME280;20564;42.902;25.336;2022-10-31T06:04:38;97745.09;;;9.33;98.00
34297;BME280;20564;42.902;25.336;2022-10-31T06:07:05;97755.25;;;9.38;98.20
34297;BME280;20564;42.902;25.336;2022-10-31T06:09:32;97758.00;;;9.48;97.13
34297;BME280;20564;42.902;25.336;2022-10-31T06:12:03;97762.16;;;9.50;98.06
34297;BME280;20564;42.902;25.336;2022-10-31T06:14:30;97767.31;;;9.63;98.29
34297;BME280;20564;42.902;25.336;2022-10-31T06:16:57;97758.00;;;9.70;97.84
34297;BME280;20564;42.902;25.336;2022-10-31T06:19:24;97755.81;;;9.75;98.62
34297;BME280;20564;42.902;25.336;2022-10-31T06:21:51;97771.47;;;9.88;99.02
34297;BME280;20564;42.902;25.336;2022-10-31T06:24:22;97771.56;;;9.98;98.82
34297;BME280;20564;42.902;25.336;2022-10-31T06:26:49;97772.75;;;10.05;100.00
34297;BME280;20564;42.902;25.336;2022-10-31T06:29:16;97773.44;;;10.18;99.52
34297;BME280;20564;42.902;25.336;2022-10-31T06:31:43;97780.38;;;10.30;99.44
34297;BME280;20564;42.902;25.336;2022-10-31T06:34:10;97776.00;;;10.52;98.36
34297;BME280;20564;42.902;25.336;2022-10-31T06:36:37;97772.31;;;10.75;97.79
34297;BME280;20564;42.902;25.336;2022-10-31T06:39:07;97771.69;;;11.04;94.94
34297;BME280;20564;42.902;25.336;2022-10-31T06:41:34;97770.06;;;11.33;92.42
34297;BME280;20564;42.902;25.336;2022-10-31T06:44:03;97765.47;;;11.66;90.20
34297;BME280;20564;42.902;25.336;2022-10-31T06:46:34;97773.25;;;11.89;88.00
34297;BME280;20564;42.902;25.336;2022-10-31T06:49:01;97773.03;;;12.21;85.66
34297;BME280;20564;42.902;25.336;2022-10-31T06:51:28;97772.25;;;12.49;83.01
34297;BME280;20564;42.902;25.336;2022-10-31T06:53:56;97765.31;;;12.77;82.51
34297;BME280;20564;42.902;25.336;2022-10-31T06:56:23;97763.63;;;13.06;80.91
34297;BME280;20564;42.902;25.336;2022-10-31T06:58:50;97763.28;;;13.38;78.91
34297;BME280;20564;42.902;25.336;2022-10-31T07:01:19;97764.31;;;13.64;78.44
34297;BME280;20564;42.902;25.336;2022-10-31T07:03:46;97757.38;;;13.91;77.01
34297;BME280;20564;42.902;25.336;2022-10-31T07:06:13;97761.75;;;14.28;74.24
34297;BME280;20564;42.902;25.336;2022-10-31T07:08:41;97759.22;;;14.54;74.20
34297;BME280;20564;42.902;25.336;2022-10-31T07:11:08;97752.81;;;14.74;73.08
34297;BME280;20564;42.902;25.336;2022-10-31T07:13:35;97754.16;;;14.96;72.21
34297;BME280;20564;42.902;25.336;2022-10-31T07:16:04;97756.44;;;15.17;71.20
34297;BME280;20564;42.902;25.336;2022-10-31T07:18:34;97751.78;;;15.37;69.31
34297;BME280;20564;42.902;25.336;2022-10-31T07:21:01;97753.06;;;15.59;68.81
34297;BME280;20564;42.902;25.336;2022-10-31T07:23:28;97757.66;;;15.83;67.48
34297;BME280;20564;42.902;25.336;2022-10-31T07:25:56;97750.81;;;16.06;66.44
34297;BME280;20564;42.902;25.336;2022-10-31T07:28:25;97746.72;;;16.20;66.00
34297;BME280;20564;42.902;25.336;2022-10-31T07:30:55;97743.56;;;16.41;64.83
34297;BME280;20564;42.902;25.336;2022-10-31T07:33:23;97737.97;;;16.60;64.22
34297;BME280;20564;42.902;25.336;2022-10-31T07:35:53;97742.31;;;16.78;63.00
34297;BME280;20564;42.902;25.336;2022-10-31T07:38:20;97745.16;;;17.01;62.52
34297;BME280;20564;42.902;25.336;2022-10-31T07:40:51;97752.94;;;17.10;62.47
34297;BME280;20564;42.902;25.336;2022-10-31T07:43:22;97753.59;;;17.29;61.76
34297;BME280;20564;42.902;25.336;2022-10-31T07:45:53;97749.56;;;17.49;61.28
34297;BME280;20564;42.902;25.336;2022-10-31T07:48:20;97745.22;;;17.56;60.31
34297;BME280;20564;42.902;25.336;2022-10-31T07:50:48;97741.53;;;17.66;59.88
34297;BME280;20564;42.902;25.336;2022-10-31T07:53:15;97745.19;;;17.81;59.54
34297;BME280;20564;42.902;25.336;2022-10-31T07:55:42;97744.47;;;17.95;58.97
34297;BME280;20564;42.902;25.336;2022-10-31T07:58:12;97745.41;;;18.11;58.67
34297;BME280;20564;42.902;25.336;2022-10-31T08:00:41;97736.34;;;18.20;58.50
34297;BME280;20564;42.902;25.336;2022-10-31T08:03:14;97736.00;;;18.23;57.71
34297;BME280;20564;42.902;25.336;2022-10-31T08:05:41;97734.63;;;18.27;57.25
34297;BME280;20564;42.902;25.336;2022-10-31T08:08:09;97741.25;;;18.39;56.77
34297;BME280;20564;42.902;25.336;2022-10-31T08:10:36;97738.22;;;18.42;56.59
34297;BME280;20564;42.902;25.336;2022-10-31T08:13:05;97735.66;;;18.49;57.32
34297;BME280;20564;42.902;25.336;2022-10-31T08:15:33;97738.88;;;18.67;56.29
34297;BME280;20564;42.902;25.336;2022-10-31T08:18:05;97733.00;;;18.80;55.96
34297;BME280;20564;42.902;25.336;2022-10-31T08:20:32;97743.50;;;18.96;55.11
34297;BME280;20564;42.902;25.336;2022-10-31T08:23:01;97742.13;;;19.00;54.72
34297;BME280;20564;42.902;25.336;2022-10-31T08:25:33;97737.84;;;19.14;54.93
34297;BME280;20564;42.902;25.336;2022-10-31T08:28:05;97732.91;;;19.26;54.21
34297;BME280;20564;42.902;25.336;2022-10-31T08:30:36;97732.28;;;19.39;54.07
34297;BME280;20564;42.902;25.336;2022-10-31T08:33:12;97726.13;;;19.38;53.79
34297;BME280;20564;42.902;25.336;2022-10-31T08:35:40;97719.56;;;19.41;53.57
34297;BME280;20564;42.902;25.336;2022-10-31T08:38:12;97718.50;;;19.50;53.25
34297;BME280;20564;42.902;25.336;2022-10-31T08:40:39;97728.88;;;19.45;52.93
34297;BME280;20564;42.902;25.336;2022-10-31T08:45:34;97729.44;;;19.55;53.80
34297;BME280;20564;42.902;25.336;2022-10-31T08:48:09;97727.97;;;19.52;53.61
34297;BME280;20564;42.902;25.336;2022-10-31T08:50:37;97725.94;;;19.55;53.33
34297;BME280;20564;42.902;25.336;2022-10-31T08:53:17;97717.72;;;19.56;53.67
34297;BME280;20564;42.902;25.336;2022-10-31T08:55:46;97724.78;;;19.72;53.55
34297;BME280;20564;42.902;25.336;2022-10-31T08:58:16;97726.88;;;19.91;52.55
34297;BME280;20564;42.902;25.336;2022-10-31T09:00:45;97724.38;;;20.05;51.96
34297;BME280;20564;42.902;25.336;2022-10-31T09:03:15;97732.41;;;20.05;52.30
34297;BME280;20564;42.902;25.336;2022-10-31T09:05:43;97723.56;;;20.04;51.75
34297;BME280;20564;42.902;25.336;2022-10-31T09:08:11;97720.31;;;20.09;52.62
34297;BME280;20564;42.902;25.336;2022-10-31T09:10:42;97726.44;;;20.24;51.81
34297;BME280;20564;42.902;25.336;2022-10-31T09:13:12;97719.53;;;20.30;51.96
34297;BME280;20564;42.902;25.336;2022-10-31T09:15:42;97722.91;;;20.38;51.07
34297;BME280;20564;42.902;25.336;2022-10-31T09:18:11;97718.00;;;20.42;51.06
34297;BME280;20564;42.902;25.336;2022-10-31T09:20:40;97718.19;;;20.55;50.92
34297;BME280;20564;42.902;25.336;2022-10-31T09:23:16;97724.47;;;20.69;50.90
34297;BME280;20564;42.902;25.336;2022-10-31T09:25:44;97717.59;;;20.81;50.35
34297;BME280;20564;42.902;25.336;2022-10-31T09:28:19;97723.31;;;21.00;49.82
34297;BME280;20564;42.902;25.336;2022-10-31T09:30:48;97716.56;;;21.04;50.05
34297;BME280;20564;42.902;25.336;2022-10-31T09:33:16;97720.75;;;21.13;49.22
34297;BME280;20564;42.902;25.336;2022-10-31T09:35:43;97714.63;;;21.19;48.88
34297;BME280;20564;42.902;25.336;2022-10-31T09:38:15;97709.84;;;21.42;48.16
34297;BME280;20564;42.902;25.336;2022-10-31T09:40:54;97719.88;;;21.62;47.64
34297;BME280;20564;42.902;25.336;2022-10-31T09:49:28;97713.38;;;21.78;46.01
34297;BME280;20564;42.902;25.336;2022-10-31T09:54:46;97712.50;;;21.71;45.95
34297;BME280;20564;42.902;25.336;2022-10-31T09:57:16;97706.97;;;21.79;46.70
34297;BME280;20564;42.902;25.336;2022-10-31T09:59:47;97704.75;;;21.89;46.15
34297;BME280;20564;42.902;25.336;2022-10-31T10:05:00;97694.91;;;22.03;45.84
34297;BME280;20564;42.902;25.336;2022-10-31T10:13:57;97692.19;;;22.51;43.73
34297;BME280;20564;42.902;25.336;2022-10-31T10:32:47;97680.63;;;22.44;44.06
34297;BME280;20564;42.902;25.336;2022-10-31T10:35:22;97681.06;;;22.54;42.83
34297;BME280;20564;42.902;25.336;2022-10-31T10:38:16;97671.13;;;22.41;42.77
34297;BME280;20564;42.902;25.336;2022-10-31T10:40:45;97669.47;;;22.40;42.70
34297;BME280;20564;42.902;25.336;2022-10-31T10:43:35;97678.34;;;22.47;43.67
34297;BME280;20564;42.902;25.336;2022-10-31T10:46:41;97686.22;;;22.55;43.46
34297;BME280;20564;42.902;25.336;2022-10-31T10:49:52;97677.31;;;22.48;42.67
34297;BME280;20564;42.902;25.336;2022-10-31T10:55:16;97682.09;;;22.66;42.47
34297;BME280;20564;42.902;25.336;2022-10-31T11:00:21;97675.09;;;22.65;41.81
34297;BME280;20564;42.902;25.336;2022-10-31T11:02:49;97685.19;;;22.56;41.45
34297;BME280;20564;42.902;25.336;2022-10-31T11:05:34;97677.94;;;22.44;41.78
34297;BME280;20564;42.902;25.336;2022-10-31T11:08:03;97672.34;;;22.32;43.15
34297;BME280;20564;42.902;25.336;2022-10-31T11:10:31;97672.56;;;22.37;42.61
34297;BME280;20564;42.902;25.336;2022-10-31T11:13:20;97667.41;;;22.35;42.88
34297;BME280;20564;42.902;25.336;2022-10-31T11:18:27;97658.75;;;22.47;41.70
34297;BME280;20564;42.902;25.336;2022-10-31T11:20:57;97655.88;;;22.55;42.09
34297;BME280;20564;42.902;25.336;2022-10-31T11:23:26;97648.44;;;22.70;41.97
34297;BME280;20564;42.902;25.336;2022-10-31T11:28:27;97641.03;;;22.72;41.73
34297;BME280;20564;42.902;25.336;2022-10-31T11:31:21;97643.50;;;22.80;42.08
34297;BME280;20564;42.902;25.336;2022-10-31T11:33:49;97644.31;;;22.87;41.76
34297;BME280;20564;42.902;25.336;2022-10-31T11:36:22;97631.53;;;22.76;41.30
34297;BME280;20564;42.902;25.336;2022-10-31T11:38:50;97641.03;;;22.85;41.31
34297;BME280;20564;42.902;25.336;2022-10-31T11:41:28;97636.91;;;22.70;41.53
34297;BME280;20564;42.902;25.336;2022-10-31T11:43:57;97633.59;;;22.74;42.30
34297;BME280;20564;42.902;25.336;2022-10-31T11:46:43;97625.13;;;22.77;42.43
34297;BME280;20564;42.902;25.336;2022-10-31T11:49:30;97632.34;;;22.83;41.58
34297;BME280;20564;42.902;25.336;2022-10-31T11:52:00;97634.03;;;22.98;41.39
34297;BME280;20564;42.902;25.336;2022-10-31T11:54:32;97634.44;;;23.01;41.98
34297;BME280;20564;42.902;25.336;2022-10-31T11:57:00;97627.03;;;22.97;41.09
34297;BME280;20564;42.902;25.336;2022-10-31T11:59:31;97622.47;;;22.97;41.46
34297;BME280;20564;42.902;25.336;2022-10-31T12:02:00;97623.47;;;23.03;41.90
34297;BME280;20564;42.902;25.336;2022-10-31T12:04:32;97625.16;;;22.97;41.59
34297;BME280;20564;42.902;25.336;2022-10-31T12:07:01;97634.22;;;22.90;41.85
34297;BME280;20564;42.902;25.336;2022-10-31T12:09:30;97622.84;;;22.87;41.88
34297;BME280;20564;42.902;25.336;2022-10-31T12:17:19;97633.97;;;22.45;41.89
34297;BME280;20564;42.902;25.336;2022-10-31T12:20:23;97631.91;;;22.40;42.44
34297;BME280;20564;42.902;25.336;2022-10-31T12:23:06;97642.84;;;22.25;42.30
34297;BME280;20564;42.902;25.336;2022-10-31T12:45:58;97634.66;;;21.85;43.78
34297;BME280;20564;42.902;25.336;2022-10-31T12:57:02;97650.00;;;22.05;44.23
34297;BME280;20564;42.902;25.336;2022-10-31T12:59:48;97638.00;;;22.01;43.58
34297;BME280;20564;42.902;25.336;2022-10-31T13:02:30;97638.00;;;22.01;44.61
34297;BME280;20564;42.902;25.336;2022-10-31T13:05:03;97642.34;;;22.02;45.24
34297;BME280;20564;42.902;25.336;2022-10-31T13:07:49;97642.56;;;22.07;45.09
34297;BME280;20564;42.902;25.336;2022-10-31T13:10:24;97645.44;;;22.12;44.30
34297;BME280;20564;42.902;25.336;2022-10-31T13:12:56;97638.44;;;22.11;44.10
34297;BME280;20564;42.902;25.336;2022-10-31T13:15:27;97649.16;;;22.11;44.64
34297;BME280;20564;42.902;25.336;2022-10-31T13:18:03;97650.81;;;22.12;44.03
34297;BME280;20564;42.902;25.336;2022-10-31T13:20:40;97639.25;;;22.05;44.50
34297;BME280;20564;42.902;25.336;2022-10-31T13:23:18;97649.13;;;21.98;44.55
34297;BME280;20564;42.902;25.336;2022-10-31T13:26:10;97650.91;;;21.77;45.43
34297;BME280;20564;42.902;25.336;2022-10-31T13:31:41;97659.13;;;21.69;45.33
34297;BME280;20564;42.902;25.336;2022-10-31T13:34:27;97660.16;;;21.75;45.60
34297;BME280;20564;42.902;25.336;2022-10-31T13:37:04;97656.06;;;21.72;45.54
34297;BME280;20564;42.902;25.336;2022-10-31T13:39:41;97658.09;;;21.70;45.41
34297;BME280;20564;42.902;25.336;2022-10-31T13:44:46;97658.88;;;21.64;45.52
34297;BME280;20564;42.902;25.336;2022-10-31T13:47:40;97660.94;;;21.62;45.70
34297;BME280;20564;42.902;25.336;2022-10-31T13:50:19;97659.88;;;21.56;45.68
34297;BME280;20564;42.902;25.336;2022-10-31T13:52:47;97649.53;;;21.47;45.97
34297;BME280;20564;42.902;25.336;2022-10-31T13:55:44;97651.91;;;21.35;46.59
34297;BME280;20564;42.902;25.336;2022-10-31T13:58:29;97654.50;;;21.22;46.65
34297;BME280;20564;42.902;25.336;2022-10-31T14:03:29;97652.81;;;21.14;46.57
34297;BME280;20564;42.902;25.336;2022-10-31T14:06:17;97662.78;;;20.99;47.17
34297;BME280;20564;42.902;25.336;2022-10-31T14:08:49;97658.84;;;20.94;47.63
34297;BME280;20564;42.902;25.336;2022-10-31T14:11:24;97657.91;;;20.81;48.10
34297;BME280;20564;42.902;25.336;2022-10-31T14:14:02;97655.34;;;20.66;48.41
34297;BME280;20564;42.902;25.336;2022-10-31T14:16:31;97653.47;;;20.66;48.62
34297;BME280;20564;42.902;25.336;2022-10-31T14:19:04;97653.09;;;20.48;49.13
34297;BME280;20564;42.902;25.336;2022-10-31T14:21:42;97661.41;;;20.38;49.66
34297;BME280;20564;42.902;25.336;2022-10-31T14:26:58;97674.75;;;20.17;50.07
34297;BME280;20564;42.902;25.336;2022-10-31T14:29:28;97670.66;;;19.99;51.09
34297;BME280;20564;42.902;25.336;2022-10-31T14:42:56;97669.66;;;19.12;55.13
34297;BME280;20564;42.902;25.336;2022-10-31T14:46:05;97670.84;;;18.94;55.45
34297;BME280;20564;42.902;25.336;2022-10-31T14:49:17;97666.38;;;18.72;56.52
34297;BME280;20564;42.902;25.336;2022-10-31T14:51:47;97668.19;;;18.48;56.88
34297;BME280;20564;42.902;25.336;2022-10-31T14:54:20;97670.81;;;18.34;57.11
34297;BME280;20564;42.902;25.336;2022-10-31T14:56:53;97677.25;;;18.16;58.54
34297;BME280;20564;42.902;25.336;2022-10-31T14:59:25;97673.19;;;17.97;58.48
34297;BME280;20564;42.902;25.336;2022-10-31T15:02:19;97677.97;;;17.79;58.87
34297;BME280;20564;42.902;25.336;2022-10-31T15:04:48;97686.00;;;17.63;60.07
34297;BME280;20564;42.902;25.336;2022-10-31T15:07:21;97683.88;;;17.50;60.30
34297;BME280;20564;42.902;25.336;2022-10-31T15:10:02;97687.75;;;17.31;61.63
34297;BME280;20564;42.902;25.336;2022-10-31T15:12:36;97687.13;;;17.13;61.05
34297;BME280;20564;42.902;25.336;2022-10-31T15:15:26;97693.47;;;16.95;62.73
34297;BME280;20564;42.902;25.336;2022-10-31T15:17:59;97690.00;;;16.78;62.69
34297;BME280;20564;42.902;25.336;2022-10-31T15:20:32;97702.09;;;16.64;63.53
34297;BME280;20564;42.902;25.336;2022-10-31T15:23:01;97698.44;;;16.49;64.25
34297;BME280;20564;42.902;25.336;2022-10-31T15:25:33;97706.69;;;16.30;64.36
34297;BME280;20564;42.902;25.336;2022-10-31T15:28:01;97709.00;;;16.17;65.06
34297;BME280;20564;42.902;25.336;2022-10-31T15:30:39;97708.97;;;16.00;65.80
34297;BME280;20564;42.902;25.336;2022-10-31T15:33:22;97707.22;;;15.83;66.12
34297;BME280;20564;42.902;25.336;2022-10-31T15:36:00;97714.16;;;15.67;66.99
34297;BME280;20564;42.902;25.336;2022-10-31T15:38:29;97713.22;;;15.51;67.18